createdAt,value
2022-09-21T00:00:11.280Z,984.62
2022-09-21T00:01:11.341Z,984.62
2022-09-21T00:02:11.314Z,984.60
2022-09-21T00:03:11.236Z,984.57
2022-09-21T00:04:11.227Z,984.66
2022-09-21T00:05:11.214Z,984.66
2022-09-21T00:06:11.217Z,984.66
2022-09-21T00:07:11.185Z,984.66
2022-09-21T00:08:11.168Z,984.63
2022-09-21T00:09:11.157Z,984.67
2022-09-21T00:10:11.143Z,984.67
2022-09-21T00:11:11.136Z,984.69
2022-09-21T00:12:11.114Z,984.65
2022-09-21T00:13:11.104Z,984.64
2022-09-21T00:14:11.095Z,984.71
2022-09-21T00:15:11.083Z,984.73
2022-09-21T00:16:11.141Z,984.66
2022-09-21T00:17:11.045Z,984.70
2022-09-21T00:18:11.035Z,984.69
2022-09-21T00:19:11.020Z,984.69
2022-09-21T00:20:11.007Z,984.73
2022-09-21T00:21:10.996Z,984.65
2022-09-21T00:22:10.997Z,984.76
2022-09-21T00:23:10.975Z,984.65
2022-09-21T00:24:10.953Z,984.74
2022-09-21T00:25:10.941Z,984.63
2022-09-21T00:26:10.924Z,984.67
2022-09-21T00:27:10.914Z,984.74
2022-09-21T00:28:10.893Z,984.79
2022-09-21T00:29:11.033Z,984.70
2022-09-21T00:30:10.871Z,984.86
2022-09-21T00:31:10.858Z,984.76
2022-09-21T00:32:10.842Z,984.79
2022-09-21T00:33:10.828Z,984.79
2022-09-21T00:34:10.813Z,984.78
2022-09-21T00:35:10.798Z,984.72
2022-09-21T00:36:10.789Z,984.70
2022-09-21T00:37:10.786Z,984.72
2022-09-21T00:38:10.775Z,984.71
2022-09-21T00:39:10.754Z,984.73
2022-09-21T00:40:10.846Z,984.68
2022-09-21T00:41:10.723Z,984.68
2022-09-21T00:42:10.695Z,984.73
2022-09-21T00:43:10.695Z,984.69
2022-09-21T00:44:10.673Z,984.65
2022-09-21T00:45:10.669Z,984.69
2022-09-21T00:46:10.702Z,984.69
2022-09-21T00:47:10.637Z,984.62
2022-09-21T00:48:10.622Z,984.63
2022-09-21T00:49:10.606Z,984.62
2022-09-21T00:50:10.594Z,984.61
2022-09-21T00:51:10.582Z,984.65
2022-09-21T00:52:10.571Z,984.72
2022-09-21T00:53:10.560Z,984.65
2022-09-21T00:54:10.557Z,984.65
2022-09-21T00:55:10.532Z,984.61
2022-09-21T00:56:10.508Z,984.69
2022-09-21T00:57:10.498Z,984.70
2022-09-21T00:58:10.481Z,984.68
2022-09-21T00:59:10.477Z,984.70
2022-09-21T01:00:10.460Z,984.68
2022-09-21T01:01:10.464Z,984.67
2022-09-21T01:02:10.445Z,984.68
2022-09-21T01:03:10.419Z,984.65
2022-09-21T01:04:10.395Z,984.70
2022-09-21T01:05:10.385Z,984.70
2022-09-21T01:06:10.368Z,984.66
2022-09-21T01:07:10.360Z,984.68
2022-09-21T01:08:10.339Z,984.71
2022-09-21T01:09:10.333Z,984.73
2022-09-21T01:10:10.335Z,984.66
2022-09-21T01:11:10.307Z,984.68
2022-09-21T01:12:10.295Z,984.66
2022-09-21T01:13:10.274Z,984.70
2022-09-21T01:14:10.260Z,984.66
2022-09-21T01:15:10.250Z,984.64
2022-09-21T01:16:10.272Z,984.62
2022-09-21T01:17:10.218Z,984.62
2022-09-21T01:18:10.204Z,984.65
2022-09-21T01:19:10.213Z,984.65
2022-09-21T01:20:10.178Z,984.73
2022-09-21T01:21:10.165Z,984.76
2022-09-21T01:22:10.144Z,984.68
2022-09-21T01:23:10.137Z,984.66
2022-09-21T01:24:10.121Z,984.70
2022-09-21T01:25:10.110Z,984.77
2022-09-21T01:26:10.120Z,984.66
2022-09-21T01:27:10.078Z,984.64
2022-09-21T01:28:10.069Z,984.65
2022-09-21T01:29:10.055Z,984.65
2022-09-21T01:30:10.039Z,984.65
2022-09-21T01:31:10.072Z,984.68
2022-09-21T01:32:10.014Z,984.68
2022-09-21T01:33:09.999Z,984.72
2022-09-21T01:34:09.985Z,984.73
2022-09-21T01:35:09.971Z,984.70
2022-09-21T01:36:09.959Z,984.68
2022-09-21T01:37:09.947Z,984.70
2022-09-21T01:38:09.931Z,984.71
2022-09-21T01:39:09.920Z,984.76
2022-09-21T01:40:09.943Z,984.77
2022-09-21T01:41:09.894Z,984.79
2022-09-21T01:42:09.890Z,984.80
2022-09-21T01:43:09.871Z,984.79
2022-09-21T01:44:09.849Z,984.83
2022-09-21T01:45:09.992Z,984.80
2022-09-21T01:46:09.820Z,984.80
2022-09-21T01:47:09.815Z,984.75
2022-09-21T01:48:09.796Z,984.77
2022-09-21T01:49:09.786Z,984.76
2022-09-21T01:50:09.767Z,984.77
2022-09-21T01:51:09.763Z,984.74
2022-09-21T01:52:09.741Z,984.77
2022-09-21T01:53:09.728Z,984.87
2022-09-21T01:54:09.713Z,984.86
2022-09-21T01:55:09.702Z,984.84
2022-09-21T01:56:09.687Z,984.77
2022-09-21T01:57:09.669Z,984.79
2022-09-21T01:58:09.682Z,984.82
2022-09-21T01:59:09.674Z,984.87
2022-09-21T02:00:09.635Z,984.89
2022-09-21T02:01:09.659Z,984.88
2022-09-21T02:02:09.668Z,984.88
2022-09-21T02:03:09.595Z,984.90
2022-09-21T02:04:09.639Z,984.91
2022-09-21T02:05:09.563Z,984.83
2022-09-21T02:06:09.558Z,984.87
2022-09-21T02:07:09.539Z,984.87
2022-09-21T02:08:09.530Z,984.88
2022-09-21T02:09:09.510Z,984.89
2022-09-21T02:10:09.503Z,984.87
2022-09-21T02:11:09.483Z,984.90
2022-09-21T02:12:09.483Z,984.89
2022-09-21T02:13:09.464Z,984.85
2022-09-21T02:14:09.467Z,984.88
2022-09-21T02:15:09.437Z,984.90
2022-09-21T02:16:09.492Z,984.89
2022-09-21T02:17:09.408Z,984.88
2022-09-21T02:18:09.396Z,984.89
2022-09-21T02:19:09.382Z,984.88
2022-09-21T02:20:09.365Z,984.88
2022-09-21T02:21:09.358Z,984.84
2022-09-21T02:22:09.344Z,984.83
2022-09-21T02:23:09.329Z,984.86
2022-09-21T02:24:09.310Z,984.87
2022-09-21T02:25:09.301Z,984.84
2022-09-21T02:26:09.295Z,984.83
2022-09-21T02:27:09.276Z,984.86
2022-09-21T02:28:09.460Z,984.83
2022-09-21T02:29:09.247Z,984.86
2022-09-21T02:30:09.314Z,984.89
2022-09-21T02:31:09.302Z,984.86
2022-09-21T02:32:09.213Z,984.90
2022-09-21T02:33:09.195Z,984.89
2022-09-21T02:34:09.188Z,984.91
2022-09-21T02:35:09.175Z,984.95
2022-09-21T02:36:09.153Z,984.83
2022-09-21T02:37:09.141Z,984.82
2022-09-21T02:38:09.127Z,984.82
2022-09-21T02:39:09.113Z,984.80
2022-09-21T02:40:09.171Z,984.82
2022-09-21T02:41:09.081Z,984.81
2022-09-21T02:42:09.075Z,984.89
2022-09-21T02:43:09.053Z,984.86
2022-09-21T02:44:09.052Z,984.82
2022-09-21T02:45:09.028Z,984.85
2022-09-21T02:46:09.095Z,984.82
2022-09-21T02:47:09.003Z,984.82
2022-09-21T02:48:08.991Z,984.85
2022-09-21T02:49:08.979Z,984.82
2022-09-21T02:50:08.961Z,984.79
2022-09-21T02:51:08.944Z,984.78
2022-09-21T02:52:08.942Z,984.79
2022-09-21T02:53:08.920Z,984.76
2022-09-21T02:54:08.911Z,984.84
2022-09-21T02:55:08.895Z,984.86
2022-09-21T02:56:08.885Z,984.89
2022-09-21T02:57:08.863Z,984.91
2022-09-21T02:58:08.856Z,984.85
2022-09-21T02:59:08.841Z,984.87
2022-09-21T03:00:08.828Z,984.83
2022-09-21T03:01:08.927Z,984.83
2022-09-21T03:02:08.969Z,984.78
2022-09-21T03:03:08.791Z,984.76
2022-09-21T03:04:08.780Z,984.77
2022-09-21T03:05:08.761Z,984.75
2022-09-21T03:06:08.748Z,984.72
2022-09-21T03:07:08.732Z,984.73
2022-09-21T03:08:08.721Z,984.75
2022-09-21T03:09:08.700Z,984.80
2022-09-21T03:10:08.692Z,984.80
2022-09-21T03:11:08.674Z,984.81
2022-09-21T03:12:08.665Z,984.81
2022-09-21T03:13:08.652Z,984.84
2022-09-21T03:14:08.641Z,984.80
2022-09-21T03:15:08.621Z,984.84
2022-09-21T03:16:08.665Z,984.76
2022-09-21T03:17:08.597Z,984.83
2022-09-21T03:18:08.649Z,984.87
2022-09-21T03:19:08.569Z,984.87
2022-09-21T03:20:08.565Z,984.82
2022-09-21T03:21:08.547Z,984.87
2022-09-21T03:22:08.534Z,984.81
2022-09-21T03:23:08.516Z,984.81
2022-09-21T03:24:08.508Z,984.84
2022-09-21T03:25:08.483Z,984.78
2022-09-21T03:26:08.473Z,984.83
2022-09-21T03:27:08.456Z,984.84
2022-09-21T03:28:08.445Z,984.78
2022-09-21T03:29:08.431Z,984.77
2022-09-21T03:30:08.426Z,984.85
2022-09-21T03:31:08.510Z,984.84
2022-09-21T03:32:08.398Z,984.88
2022-09-21T03:33:08.375Z,984.87
2022-09-21T03:34:08.448Z,984.90
2022-09-21T03:35:08.346Z,984.87
2022-09-21T03:36:08.342Z,984.93
2022-09-21T03:37:08.321Z,984.84
2022-09-21T03:38:08.305Z,984.89
2022-09-21T03:39:08.293Z,984.92
2022-09-21T03:40:08.330Z,984.84
2022-09-21T03:41:08.270Z,984.83
2022-09-21T03:42:08.260Z,984.89
2022-09-21T03:43:08.239Z,984.89
2022-09-21T03:44:08.270Z,984.90
2022-09-21T03:45:08.220Z,984.86
2022-09-21T03:46:08.248Z,984.85
2022-09-21T03:47:08.193Z,984.94
2022-09-21T03:48:08.174Z,984.89
2022-09-21T03:49:08.162Z,984.92
2022-09-21T03:50:10.152Z,985.03
2022-09-21T03:51:08.132Z,985.05
2022-09-21T03:52:08.120Z,984.95
2022-09-21T03:53:08.105Z,985.02
2022-09-21T03:54:08.093Z,985.02
2022-09-21T03:55:08.081Z,984.98
2022-09-21T03:56:08.074Z,985.03
2022-09-21T03:57:08.055Z,984.94
2022-09-21T03:58:08.041Z,984.98
2022-09-21T03:59:13.192Z,985.00
2022-09-21T04:00:09.035Z,985.05
2022-09-21T04:01:08.006Z,985.05
2022-09-21T04:02:07.988Z,985.03
2022-09-21T04:03:07.967Z,985.03
2022-09-21T04:04:08.071Z,985.00
2022-09-21T04:05:07.946Z,985.03
2022-09-21T04:06:07.952Z,985.07
2022-09-21T04:07:07.918Z,985.08
2022-09-21T04:08:07.908Z,985.07
2022-09-21T04:09:07.891Z,985.03
2022-09-21T04:10:07.882Z,985.11
2022-09-21T04:11:07.864Z,985.06
2022-09-21T04:12:07.855Z,985.09
2022-09-21T04:13:07.832Z,985.11
2022-09-21T04:14:07.821Z,985.18
2022-09-21T04:15:07.807Z,985.08
2022-09-21T04:16:07.964Z,985.10
2022-09-21T04:17:07.779Z,985.11
2022-09-21T04:18:07.767Z,985.13
2022-09-21T04:19:07.762Z,985.15
2022-09-21T04:20:07.744Z,985.09
2022-09-21T04:21:07.728Z,985.16
2022-09-21T04:22:07.750Z,985.12
2022-09-21T04:23:07.702Z,985.13
2022-09-21T04:24:07.693Z,985.13
2022-09-21T04:25:07.675Z,985.17
2022-09-21T04:26:07.669Z,985.15
2022-09-21T04:27:07.667Z,985.17
2022-09-21T04:28:07.637Z,985.15
2022-09-21T04:29:07.615Z,985.23
2022-09-21T04:30:07.613Z,985.19
2022-09-21T04:31:07.698Z,985.14
2022-09-21T04:32:07.584Z,985.16
2022-09-21T04:33:07.617Z,985.24
2022-09-21T04:34:07.558Z,985.24
2022-09-21T04:35:07.538Z,985.16
2022-09-21T04:36:07.528Z,985.21
2022-09-21T04:37:07.507Z,985.19
2022-09-21T04:38:07.519Z,985.13
2022-09-21T04:39:07.482Z,985.13
2022-09-21T04:40:07.587Z,985.13
2022-09-21T04:41:07.458Z,985.14
2022-09-21T04:42:07.445Z,985.16
2022-09-21T04:43:07.430Z,985.20
2022-09-21T04:44:07.424Z,985.16
2022-09-21T04:45:07.409Z,985.12
2022-09-21T04:46:07.434Z,985.20
2022-09-21T04:47:07.376Z,985.16
2022-09-21T04:48:07.367Z,985.14
2022-09-21T04:49:07.350Z,985.22
2022-09-21T04:50:07.339Z,985.33
2022-09-21T04:51:07.323Z,985.27
2022-09-21T04:52:07.317Z,985.29
2022-09-21T04:53:07.298Z,985.23
2022-09-21T04:54:07.305Z,985.25
2022-09-21T04:55:07.269Z,985.26
2022-09-21T04:56:07.268Z,985.22
2022-09-21T04:57:07.244Z,985.26
2022-09-21T04:58:07.228Z,985.28
2022-09-21T04:59:07.345Z,985.25
2022-09-21T05:00:07.201Z,985.30
2022-09-21T05:01:07.245Z,985.34
2022-09-21T05:02:07.180Z,985.26
2022-09-21T05:03:07.164Z,985.28
2022-09-21T05:04:07.151Z,985.28
2022-09-21T05:05:07.130Z,985.29
2022-09-21T05:06:07.122Z,985.29
2022-09-21T05:07:07.103Z,985.34
2022-09-21T05:08:07.094Z,985.33
2022-09-21T05:09:07.080Z,985.32
2022-09-21T05:10:07.093Z,985.38
2022-09-21T05:11:07.052Z,985.38
2022-09-21T05:12:07.086Z,985.33
2022-09-21T05:13:07.028Z,985.39
2022-09-21T05:14:07.018Z,985.34
2022-09-21T05:15:06.997Z,985.32
2022-09-21T05:16:07.065Z,985.30
2022-09-21T05:17:06.972Z,985.34
2022-09-21T05:18:06.961Z,985.37
2022-09-21T05:19:07.159Z,985.34
2022-09-21T05:20:06.934Z,985.37
2022-09-21T05:21:06.915Z,985.35
2022-09-21T05:22:06.904Z,985.40
2022-09-21T05:23:06.888Z,985.38
2022-09-21T05:24:06.882Z,985.40
2022-09-21T05:25:06.864Z,985.43
2022-09-21T05:26:06.885Z,985.45
2022-09-21T05:27:06.844Z,985.49
2022-09-21T05:28:06.826Z,985.49
2022-09-21T05:29:06.922Z,985.49
2022-09-21T05:30:06.803Z,985.49
2022-09-21T05:31:17.696Z,985.52
2022-09-21T05:32:07.795Z,985.51
2022-09-21T05:33:06.753Z,985.52
2022-09-21T05:34:06.744Z,985.53
2022-09-21T05:35:06.727Z,985.50
2022-09-21T05:36:06.723Z,985.55
2022-09-21T05:37:06.707Z,985.61
2022-09-21T05:38:06.691Z,985.59
2022-09-21T05:39:06.672Z,985.56
2022-09-21T05:40:06.710Z,985.64
2022-09-21T05:41:06.640Z,985.55
2022-09-21T05:42:06.652Z,985.61
2022-09-21T05:43:06.613Z,985.60
2022-09-21T05:44:06.605Z,985.67
2022-09-21T05:45:06.589Z,985.61
2022-09-21T05:46:06.622Z,985.59
2022-09-21T05:47:06.561Z,985.57
2022-09-21T05:48:06.556Z,985.55
2022-09-21T05:49:06.661Z,985.56
2022-09-21T05:50:06.529Z,985.61
2022-09-21T05:51:06.511Z,985.61
2022-09-21T05:52:06.507Z,985.59
2022-09-21T05:53:06.485Z,985.60
2022-09-21T05:54:06.482Z,985.54
2022-09-21T05:55:06.460Z,985.50
2022-09-21T05:56:06.450Z,985.54
2022-09-21T05:57:06.426Z,985.59
2022-09-21T05:58:06.434Z,985.62
2022-09-21T05:59:06.401Z,985.58
2022-09-21T06:00:06.410Z,985.59
2022-09-21T06:01:06.416Z,985.58
2022-09-21T06:02:06.440Z,985.49
2022-09-21T06:03:06.346Z,985.52
2022-09-21T06:04:06.465Z,985.43
2022-09-21T06:05:06.323Z,985.53
2022-09-21T06:06:06.320Z,985.53
2022-09-21T06:07:06.295Z,985.44
2022-09-21T06:08:06.284Z,985.54
2022-09-21T06:09:06.266Z,985.42
2022-09-21T06:10:06.250Z,985.51
2022-09-21T06:11:06.247Z,985.58
2022-09-21T06:12:06.229Z,985.51
2022-09-21T06:13:06.217Z,985.56
2022-09-21T06:14:06.333Z,985.53
2022-09-21T06:15:06.200Z,985.52
2022-09-21T06:16:06.168Z,985.57
2022-09-21T06:17:06.160Z,985.55
2022-09-21T06:18:06.146Z,985.59
2022-09-21T06:19:06.135Z,985.51
2022-09-21T06:20:06.116Z,985.52
2022-09-21T06:21:06.101Z,985.48
2022-09-21T06:22:06.085Z,985.45
2022-09-21T06:23:06.077Z,985.44
2022-09-21T06:24:06.064Z,985.43
2022-09-21T06:25:06.053Z,985.40
2022-09-21T06:26:06.033Z,985.43
2022-09-21T06:27:06.018Z,985.35
2022-09-21T06:28:06.003Z,985.31
2022-09-21T06:29:05.997Z,985.36
2022-09-21T06:30:06.002Z,985.31
2022-09-21T06:31:06.015Z,985.29
2022-09-21T06:32:05.955Z,985.34
2022-09-21T06:33:05.944Z,985.34
2022-09-21T06:34:06.055Z,985.25
2022-09-21T06:35:05.920Z,985.25
2022-09-21T06:36:05.902Z,985.29
2022-09-21T06:37:05.886Z,985.29
2022-09-21T06:38:05.868Z,985.22
2022-09-21T06:39:05.854Z,985.25
2022-09-21T06:40:05.888Z,985.29
2022-09-21T06:41:05.831Z,985.24
2022-09-21T06:42:05.812Z,985.24
2022-09-21T06:43:05.810Z,985.33
2022-09-21T06:44:05.921Z,985.17
2022-09-21T06:45:05.776Z,985.18
2022-09-21T06:46:05.805Z,985.21
2022-09-21T06:47:05.750Z,985.21
2022-09-21T06:48:05.734Z,985.19
2022-09-21T06:49:05.779Z,985.28
2022-09-21T06:50:05.708Z,985.27
2022-09-21T06:51:05.698Z,985.13
2022-09-21T06:52:05.685Z,985.22
2022-09-21T06:53:05.667Z,985.11
2022-09-21T06:54:05.651Z,985.09
2022-09-21T06:55:05.639Z,985.15
2022-09-21T06:56:05.629Z,985.09
2022-09-21T06:57:05.620Z,985.15
2022-09-21T06:58:05.603Z,985.11
2022-09-21T06:59:05.594Z,985.09
2022-09-21T07:00:05.577Z,985.08
2022-09-21T07:01:05.721Z,985.02
2022-09-21T07:02:05.670Z,985.12
2022-09-21T07:03:05.535Z,985.11
2022-09-21T07:04:05.646Z,985.09
2022-09-21T07:05:05.510Z,985.05
2022-09-21T07:06:05.492Z,984.99
2022-09-21T07:07:05.487Z,984.98
2022-09-21T07:08:05.805Z,985.06
2022-09-21T07:10:06.458Z,985.01
2022-09-21T07:11:05.430Z,985.04
2022-09-21T07:12:05.408Z,985.02
2022-09-21T07:13:05.403Z,985.00
2022-09-21T07:14:05.542Z,985.03
2022-09-21T07:15:05.375Z,984.98
2022-09-21T07:16:05.412Z,984.99
2022-09-21T07:17:05.341Z,985.02
2022-09-21T07:18:05.984Z,984.97
2022-09-21T07:19:10.925Z,984.97
2022-09-21T07:20:06.322Z,984.99
2022-09-21T07:21:05.296Z,985.06
2022-09-21T07:22:05.270Z,985.08
2022-09-21T07:23:05.258Z,985.05
2022-09-21T07:24:09.601Z,985.04
2022-09-21T07:25:06.255Z,984.98
2022-09-21T07:26:05.218Z,985.09
2022-09-21T07:27:05.213Z,984.98
2022-09-21T07:28:05.195Z,984.99
2022-09-21T07:29:05.362Z,985.03
2022-09-21T07:30:05.165Z,985.01
2022-09-21T07:31:05.156Z,984.95
2022-09-21T07:32:05.140Z,985.00
2022-09-21T07:33:05.124Z,985.04
2022-09-21T07:34:05.131Z,984.98
2022-09-21T07:35:05.101Z,985.02
2022-09-21T07:36:05.084Z,985.02
2022-09-21T07:37:05.073Z,985.00
2022-09-21T07:38:05.058Z,985.02
2022-09-21T07:39:05.051Z,984.98
2022-09-21T07:40:05.104Z,984.94
2022-09-21T07:41:05.023Z,985.01
2022-09-21T07:42:05.028Z,985.02
2022-09-21T07:43:04.992Z,985.02
2022-09-21T07:44:05.108Z,984.97
2022-09-21T07:45:05.182Z,984.94
2022-09-21T07:46:04.988Z,985.01
2022-09-21T07:47:04.940Z,984.96
2022-09-21T07:48:04.925Z,985.03
2022-09-21T07:49:04.916Z,985.07
2022-09-21T07:50:04.920Z,984.94
2022-09-21T07:51:04.886Z,984.99
2022-09-21T07:52:07.325Z,985.07
2022-09-21T07:53:04.858Z,985.24
2022-09-21T07:54:04.841Z,985.24
2022-09-21T07:55:04.836Z,985.21
2022-09-21T07:56:04.811Z,985.22
2022-09-21T07:57:04.806Z,985.23
2022-09-21T07:58:04.786Z,985.26
2022-09-21T07:59:04.774Z,985.25
2022-09-21T08:00:04.762Z,985.32
2022-09-21T08:01:04.780Z,985.31
2022-09-21T08:02:04.804Z,985.31
2022-09-21T08:03:04.724Z,985.35
2022-09-21T08:04:04.875Z,985.34
2022-09-21T08:05:04.695Z,985.31
2022-09-21T08:06:04.716Z,985.28
2022-09-21T08:07:04.666Z,985.32
2022-09-21T08:08:04.659Z,985.38
2022-09-21T08:09:04.653Z,985.38
2022-09-21T08:10:04.633Z,985.33
2022-09-21T08:11:04.614Z,985.38
2022-09-21T08:12:04.596Z,985.34
2022-09-21T08:13:04.595Z,985.20
2022-09-21T08:14:04.700Z,985.11
2022-09-21T08:15:04.566Z,985.06
2022-09-21T08:16:04.652Z,985.04
2022-09-21T08:17:04.538Z,985.11
2022-09-21T08:18:04.518Z,984.98
2022-09-21T08:19:04.514Z,984.98
2022-09-21T08:20:04.492Z,984.98
2022-09-21T08:21:04.479Z,984.90
2022-09-21T08:22:04.525Z,984.82
2022-09-21T08:23:04.455Z,984.97
2022-09-21T08:24:04.436Z,984.84
2022-09-21T08:25:04.431Z,984.88
2022-09-21T08:26:04.407Z,984.80
2022-09-21T08:27:04.397Z,984.66
2022-09-21T08:28:09.416Z,984.78
2022-09-21T08:29:04.438Z,984.73
2022-09-21T08:30:04.355Z,984.77
2022-09-21T08:31:04.365Z,984.78
2022-09-21T08:32:04.393Z,984.70
2022-09-21T08:33:04.324Z,984.63
2022-09-21T08:34:04.301Z,984.70
2022-09-21T08:35:04.300Z,984.65
2022-09-21T08:36:04.285Z,984.66
2022-09-21T08:37:04.258Z,984.67
2022-09-21T08:38:04.279Z,984.66
2022-09-21T08:39:04.234Z,984.68
2022-09-21T08:40:04.272Z,984.67
2022-09-21T08:41:04.209Z,984.56
2022-09-21T08:42:04.193Z,984.62
2022-09-21T08:43:04.180Z,984.64
2022-09-21T08:44:04.163Z,984.57
2022-09-21T08:45:04.155Z,984.58
2022-09-21T08:46:04.141Z,984.55
2022-09-21T08:47:04.175Z,984.67
2022-09-21T08:48:04.123Z,984.61
2022-09-21T08:49:04.101Z,984.55
2022-09-21T08:50:04.091Z,984.57
2022-09-21T08:51:04.078Z,984.59
2022-09-21T08:52:04.055Z,984.50
2022-09-21T08:53:04.051Z,984.48
2022-09-21T08:54:04.153Z,984.53
2022-09-21T08:55:04.026Z,984.53
2022-09-21T08:56:04.010Z,984.53
2022-09-21T08:57:05.779Z,984.52
2022-09-21T08:58:03.986Z,984.47
2022-09-21T08:59:03.973Z,984.47
2022-09-21T09:00:03.958Z,984.46
2022-09-21T09:01:07.071Z,984.41
2022-09-21T09:02:04.024Z,984.44
2022-09-21T09:03:03.918Z,984.40
2022-09-21T09:04:05.785Z,984.49
2022-09-21T09:05:03.892Z,984.29
2022-09-21T09:06:03.875Z,984.37
2022-09-21T09:07:03.867Z,984.34
2022-09-21T09:08:03.848Z,984.33
2022-09-21T09:09:03.842Z,984.31
2022-09-21T09:10:03.847Z,984.30
2022-09-21T09:11:03.824Z,984.29
2022-09-21T09:12:07.433Z,984.28
2022-09-21T09:13:04.816Z,984.25
2022-09-21T09:14:03.777Z,984.23
2022-09-21T09:15:03.764Z,984.20
2022-09-21T09:16:03.808Z,984.25
2022-09-21T09:17:03.736Z,984.20
2022-09-21T09:18:03.717Z,984.16
2022-09-21T09:19:03.727Z,984.20
2022-09-21T09:20:03.694Z,984.14
2022-09-21T09:21:03.693Z,984.16
2022-09-21T09:22:03.672Z,984.14
2022-09-21T09:23:03.662Z,984.12
2022-09-21T09:24:03.652Z,984.20
2022-09-21T09:25:03.632Z,984.11
2022-09-21T09:26:03.639Z,984.04
2022-09-21T09:27:03.612Z,984.06
2022-09-21T09:28:03.598Z,983.95
2022-09-21T09:29:03.587Z,983.97
2022-09-21T09:30:04.158Z,983.93
2022-09-21T09:31:03.595Z,983.96
2022-09-21T09:32:03.592Z,983.90
2022-09-21T09:33:03.543Z,983.93
2022-09-21T09:34:03.522Z,983.90
2022-09-21T09:35:03.514Z,983.90
2022-09-21T09:36:03.504Z,983.93
2022-09-21T09:37:03.491Z,983.91
2022-09-21T09:38:03.474Z,983.84
2022-09-21T09:39:03.459Z,983.86
2022-09-21T09:40:03.940Z,983.74
2022-09-21T09:41:03.438Z,983.74
2022-09-21T09:42:03.478Z,983.67
2022-09-21T09:43:04.947Z,983.62
2022-09-21T09:44:03.390Z,983.54
2022-09-21T09:45:03.383Z,983.62
2022-09-21T09:46:03.369Z,983.63
2022-09-21T09:47:03.447Z,983.60
2022-09-21T09:48:03.340Z,983.50
2022-09-21T09:49:03.383Z,983.45
2022-09-21T09:50:03.319Z,983.44
2022-09-21T09:51:03.310Z,983.39
2022-09-21T09:52:03.297Z,983.34
2022-09-21T09:53:03.284Z,983.34
2022-09-21T09:54:06.870Z,983.37
2022-09-21T09:55:04.276Z,983.41
2022-09-21T09:56:03.250Z,983.31
2022-09-21T09:57:03.240Z,983.34
2022-09-21T09:58:03.253Z,983.30
2022-09-21T09:59:03.218Z,983.24
2022-09-21T10:00:03.195Z,983.22
2022-09-21T10:01:03.187Z,983.22
2022-09-21T10:02:03.281Z,983.12
2022-09-21T10:03:03.165Z,983.17
2022-09-21T10:04:03.190Z,983.17
2022-09-21T10:05:03.135Z,983.20
2022-09-21T10:06:03.123Z,983.16
2022-09-21T10:07:03.108Z,983.08
2022-09-21T10:08:03.096Z,983.19
2022-09-21T10:09:03.086Z,983.17
2022-09-21T10:10:03.070Z,983.14
2022-09-21T10:11:03.060Z,983.13
2022-09-21T10:12:08.076Z,983.12
2022-09-21T10:13:04.058Z,983.25
2022-09-21T10:14:03.050Z,983.30
2022-09-21T10:15:03.016Z,983.34
2022-09-21T10:16:03.078Z,983.27
2022-09-21T10:17:02.990Z,983.26
2022-09-21T10:18:02.979Z,983.28
2022-09-21T10:19:02.965Z,983.29
2022-09-21T10:20:02.948Z,983.23
2022-09-21T10:21:02.934Z,983.18
2022-09-21T10:22:02.919Z,983.11
2022-09-21T10:23:02.916Z,983.15
2022-09-21T10:24:02.895Z,983.10
2022-09-21T10:25:02.881Z,983.34
2022-09-21T10:26:02.870Z,983.41
2022-09-21T10:27:02.857Z,983.28
2022-09-21T10:28:02.852Z,983.36
2022-09-21T10:29:02.838Z,983.25
2022-09-21T10:30:02.847Z,983.23
2022-09-21T10:31:02.877Z,983.19
2022-09-21T10:32:02.802Z,983.33
2022-09-21T10:33:02.790Z,983.37
2022-09-21T10:34:02.775Z,983.44
2022-09-21T10:35:02.758Z,983.47
2022-09-21T10:36:02.750Z,983.46
2022-09-21T10:37:02.734Z,983.34
2022-09-21T10:38:02.727Z,983.28
2022-09-21T10:39:02.706Z,983.26
2022-09-21T10:40:02.758Z,983.40
2022-09-21T10:41:02.676Z,983.37
2022-09-21T10:42:02.667Z,983.43
2022-09-21T10:43:02.655Z,983.44
2022-09-21T10:44:02.641Z,983.43
2022-09-21T10:45:02.629Z,983.35
2022-09-21T10:46:02.716Z,983.36
2022-09-21T10:47:02.604Z,983.28
2022-09-21T10:48:02.594Z,983.34
2022-09-21T10:49:02.587Z,983.32
2022-09-21T10:50:02.571Z,983.29
2022-09-21T10:51:02.549Z,983.30
2022-09-21T10:52:02.542Z,983.38
2022-09-21T10:53:02.521Z,983.31
2022-09-21T10:54:02.512Z,983.33
2022-09-21T10:55:02.497Z,983.28
2022-09-21T10:56:15.417Z,983.26
2022-09-21T10:57:03.500Z,983.32
2022-09-21T10:58:02.461Z,983.23
2022-09-21T10:59:02.448Z,983.20
2022-09-21T11:00:02.444Z,983.29
2022-09-21T11:01:02.415Z,983.32
2022-09-21T11:02:02.553Z,983.33
2022-09-21T11:03:02.419Z,983.28
2022-09-21T11:04:02.383Z,983.33
2022-09-21T11:05:02.362Z,983.46
2022-09-21T11:06:02.354Z,983.40
2022-09-21T11:07:02.338Z,983.40
2022-09-21T11:08:02.329Z,983.42
2022-09-21T11:09:02.312Z,983.37
2022-09-21T11:10:02.303Z,983.43
2022-09-21T11:11:02.289Z,983.25
2022-09-21T11:12:02.279Z,983.24
2022-09-21T11:13:02.262Z,983.23
2022-09-21T11:14:02.254Z,983.03
2022-09-21T11:15:02.234Z,983.22
2022-09-21T11:16:02.338Z,983.21
2022-09-21T11:17:02.203Z,983.25
2022-09-21T11:18:02.219Z,983.29
2022-09-21T11:19:02.178Z,983.32
2022-09-21T11:20:02.171Z,983.39
2022-09-21T11:21:02.154Z,983.36
2022-09-21T11:22:02.143Z,983.23
2022-09-21T11:23:02.130Z,983.20
2022-09-21T11:24:02.132Z,983.06
2022-09-21T11:25:02.107Z,983.15
2022-09-21T11:26:02.096Z,983.24
2022-09-21T11:27:02.074Z,983.16
2022-09-21T11:28:02.068Z,983.12
2022-09-21T11:29:02.052Z,982.93
2022-09-21T11:30:02.037Z,983.01
2022-09-21T11:31:02.069Z,982.99
2022-09-21T11:32:05.795Z,982.97
2022-09-21T11:33:01.994Z,982.97
2022-09-21T11:34:02.006Z,982.93
2022-09-21T11:35:01.972Z,982.78
2022-09-21T11:36:01.961Z,982.86
2022-09-21T11:37:02.005Z,982.92
2022-09-21T11:38:01.935Z,983.02
2022-09-21T11:39:01.915Z,983.12
2022-09-21T11:40:01.918Z,983.08
2022-09-21T11:41:01.893Z,983.01
2022-09-21T11:42:01.892Z,983.01
2022-09-21T11:43:01.860Z,982.86
2022-09-21T11:44:03.239Z,982.87
2022-09-21T11:45:01.861Z,982.88
2022-09-21T11:46:01.866Z,982.89
2022-09-21T11:47:01.818Z,982.81
2022-09-21T11:48:01.800Z,982.76
2022-09-21T11:49:01.788Z,982.82
2022-09-21T11:50:26.521Z,982.77
2022-09-21T11:51:02.787Z,982.73
2022-09-21T11:52:01.747Z,982.73
2022-09-21T11:53:01.736Z,982.66
2022-09-21T11:54:01.726Z,982.66
2022-09-21T11:55:01.713Z,982.68
2022-09-21T11:56:01.767Z,982.69
2022-09-21T11:57:01.697Z,982.81
2022-09-21T11:58:01.686Z,982.55
2022-09-21T11:59:01.708Z,982.71
2022-09-21T12:00:01.645Z,982.85
2022-09-21T12:01:01.716Z,982.81
2022-09-21T12:02:01.664Z,982.67
2022-09-21T12:03:01.603Z,982.70
2022-09-21T12:04:01.622Z,982.79
2022-09-21T12:05:01.574Z,982.63
2022-09-21T12:06:01.590Z,982.64
2022-09-21T12:07:01.657Z,982.81
2022-09-21T12:08:01.539Z,982.81
2022-09-21T12:09:01.526Z,982.71
2022-09-21T12:10:01.515Z,982.72
2022-09-21T12:11:01.494Z,982.62
2022-09-21T12:12:01.486Z,982.53
2022-09-21T12:13:01.475Z,982.60
2022-09-21T12:14:01.468Z,982.63
2022-09-21T12:15:01.495Z,982.55
2022-09-21T12:16:01.498Z,982.62
2022-09-21T12:17:01.508Z,982.61
2022-09-21T12:18:01.414Z,982.60
2022-09-21T12:19:01.399Z,982.52
2022-09-21T12:20:01.446Z,982.62
2022-09-21T12:21:01.369Z,982.60
2022-09-21T12:22:01.380Z,982.57
2022-09-21T12:23:01.343Z,982.57
2022-09-21T12:24:01.339Z,982.32
2022-09-21T12:25:01.323Z,982.49
2022-09-21T12:26:01.308Z,982.58
2022-09-21T12:27:01.291Z,982.55
2022-09-21T12:28:01.283Z,982.55
2022-09-21T12:29:01.275Z,982.64